Weather observations for the past three days for
Yakima Air Terminal - McAllister Field
Metric (Imperial)
Date Time (pdt) Wind (kph) Vis. (km) Weather Sky Cond. Temperature (ºC) Relative Humidity Wind Chill (°C) Heat Index (°C) Pressure Precipitation (cm)
Air Dwpt 6 hour altimeter (cm) sea level (mb) 1 hr 3 hr 6 hr
Max. Min.
02 11:53 SW 20 G 43 16.09 Partly Cloudy SCT085 22.8 5.6 33% 75.46 1005.4
02 10:53 S 19 16.09 Fair CLR 21.7 6.7 21.7 12.2 38% 75.49 1005.8
02 09:53 SE 6 16.09 Fair CLR 18.9 8.9 52% 75.51 1006.2
02 08:53 Calm 16.09 Fair CLR 16.7 8.9 60% 75.54 1006.8
02 07:53 W 7 16.09 Partly Cloudy SCT110 14.4 10.6 78% 75.57 1007.0
02 06:53 N 7 16.09 Overcast OVC100 13.9 10 78% 75.57 1007.1
02 05:53 Calm 16.09 Mostly Cloudy BKN120 13.3 9.4 77% 75.57 1006.9
02 04:53 Calm 16.09 A Few Clouds FEW120 13.9 10 19.4 13.9 78% 75.59 1007.1
02 03:53 Vrbl 6 16.09 Mostly Cloudy BKN120 15 10.6 75% 75.54 1006.4
02 02:53 W 7 16.09 Light Rain FEW050 BKN090 OVC120 16.1 10 67% 75.51 1006.0
02 01:53 SW 11 16.09 Fair CLR 15 8.3 64% 75.51 1006.2
02 00:53 NW 9 16.09 Fair CLR 17.2 8.3 56% 75.51 1006.2
01 23:53 Vrbl 7 16.09 Mostly Cloudy BKN110 18.3 8.9 54% 75.57 1006.8
01 22:53 NW 20 16.09 Fair CLR 19.4 8.9 28.9 19.4 51% 75.54 1006.5
01 21:53 NW 11 G 30 16.09 Fair CLR 20 9.4 51% 75.51 1006.4
01 20:53 Calm 16.09 Fair CLR 20.6 10 51% 75.44 1005.4
01 19:53 SW 7 16.09 Fair CLR 22.2 10 46% 75.39 1004.6
01 18:53 NW 24 16.09 Fair CLR 25 10 39% 26 75.31 1003.7
01 17:53 S 28 16.09 Fair CLR 26.7 7.2 29% 26 75.29 0.0
01 16:53 S 19 16.09 A Few Clouds FEW100 28.9 6.1 29.4 23.9 24% 27 75.31 0.0
01 15:53 SE 15 16.09 Fair CLR 28.9 7.2 25% 28 75.31 0.0
01 14:53 E 9 16.09 Fair CLR 28.3 6.1 24% 27 75.34 0.0
01 13:53 Vrbl 11 16.09 Fair CLR 27.2 8.9 32% 27 75.39 0.0
01 12:53 W 9 16.09 Fair CLR 23.9 8.9 39% 25 75.44 0.0
01 11:53 W 11 16.09 Fair CLR 23.9 7.8 36% 25 75.49 1006.0
01 10:53 Vrbl 6 16.09 Fair CLR 21.1 7.8 42% 75.51 1006.4
01 09:53 W 6 16.09 Fair CLR 21.1 8.3 44% 75.54 1006.6
01 08:53 W 15 16.09 Fair CLR 16.1 7.2 56% 75.57 1007.0
01 07:53 W 15 16.09 Fair CLR 16.1 7.2 56% 75.57 1006.7
01 06:53 W 15 16.09 Fair CLR 12.8 7.2 69% 75.54 1006.5
01 05:53 W 15 16.09 Fair CLR 12.2 7.2 72% 75.51 1006.4
31 23:53 W 9 16.09 Fair CLR 15 7.8 62% 75.62 1007.7
31 22:53 W 15 16.09 Fair CLR 16.1 7.2 56% 75.62 1007.8
31 21:53 W 11 16.09 Fair CLR 17.2 7.2 52% 75.64 1008.1
31 20:53 Calm 16.09 Fair CLR 18.9 8.9 52% 75.64 1007.9
31 19:53 SW 7 16.09 Fair CLR 22.2 8.3 41% 75.59 1007.3
31 18:53 Calm 16.09 Fair CLR 27.2 8.9 32% 27 75.59 1007.4
31 17:53 Calm 16.09 Fair CLR 27.2 7.2 28% 26 75.64 0.0
31 16:53 E 6 16.09 Fair CLR 28.3 6.1 24% 27 75.69 0.0
31 15:53 E 7 16.09 Fair CLR 27.8 6.1 25% 27 75.77 0.0
31 14:53 Vrbl 7 16.09 Fair CLR 27.2 6.7 27% 26 75.82 0.0
31 13:53 Vrbl 7 16.09 Fair CLR 26.1 7.2 30% 26 75.9 0.0
31 12:53 Calm 16.09 Fair CLR 24.4 5.6 30% 25 75.95 0.0
31 11:53 Calm 16.09 Fair CLR 22.8 6.7 35% 76.02 1013.3
31 10:53 Calm 16.09 Fair CLR 21.7 7.2 39% 76.1 1014.0
31 09:53 NW 11 16.09 Fair CLR 17.8 8.9 56% 76.12 1014.6
31 08:53 W 13 16.09 Fair CLR 16.1 7.8 58% 76.17 1015.3
31 07:53 W 9 16.09 Fair CLR 12.8 7.2 69% 76.17 1015.3
31 06:53 W 11 16.09 Fair CLR 7.8 6.1 89% 6 76.15 1015.2
30 23:53 SW 11 16.09 Fair CLR 12.8 7.2 69% 76.15 1015.0
30 22:53 W 11 16.09 Fair CLR 13.3 5.6 60% 76.15 1015.2
30 21:53 SW 7 16.09 Fair CLR 15.6 6.7 56% 76.15 1015.0
30 20:53 SE 7 16.09 Fair CLR 18.3 6.7 47% 76.12 1014.8
30 19:53 W 6 16.09 Fair CLR 20.6 5.6 38% 76.1 1014.4
30 18:53 SW 6 16.09 Fair CLR 22.2 6.7 37% 76.07 1014.2
30 17:53 Vrbl 11 16.09 Fair CLR 23.9 3.9 27% 25 76.1 1014.3
30 16:53 Vrbl 11 16.09 Fair CLR 23.9 3.9 23.9 18.9 27% 25 76.12 0.0
30 15:53 E 11 16.09 Fair CLR 23.9 5 29% 25 76.17 0.0
30 14:53 E 13 16.09 Fair CLR 22.8 3.9 29% 76.23 0.0
30 13:53 S 13 16.09 Fair CLR 22.2 5 33% 76.25 0.0
30 12:53 S 7 16.09 Fair CLR 20 3.9 35% 76.3 0.0
Date Time (pdt) Wind (kph) Vis. (km) Weather Sky Cond. Air Dwpt Max. Min. Relative Humidity Wind Chill (°C) Heat Index (°C) altimeter (cm) sea level (mb) 1 hr 3 hr 6 hr
6 hour
Temperature (ºC) Pressure Precipitation (cm)